sensor_id;sensor_type;location;lat;lon;timestamp;temperature;humidity
6556;DHT22;3311;48.32423000;14.29074500;2023-04-15T00:02:14;12.90;68.70
6556;DHT22;3311;48.32423000;14.29074500;2023-04-15T00:04:44;12.90;68.80
6556;DHT22;3311;48.32423000;14.29074500;2023-04-15T00:07:11;12.90;68.60
6556;DHT22;3311;48.32423000;14.29074500;2023-04-15T00:09:40;12.90;68.80
6556;DHT22;3311;48.32423000;14.29074500;2023-04-15T00:12:10;12.90;68.40
6556;DHT22;3311;48.32423000;14.29074500;2023-04-15T00:14:38;13.00;68.30
6556;DHT22;3311;48.32423000;14.29074500;2023-04-15T00:17:05;13.00;68.30
6556;DHT22;3311;48.32423000;14.29074500;2023-04-15T00:19:33;12.90;68.50
6556;DHT22;3311;48.32423000;14.29074500;2023-04-15T00:22:00;12.80;68.30
6556;DHT22;3311;48.32423000;14.29074500;2023-04-15T00:24:28;12.70;68.50
6556;DHT22;3311;48.32423000;14.29074500;2023-04-15T00:26:56;12.80;68.90
6556;DHT22;3311;48.32423000;14.29074500;2023-04-15T00:29:26;12.90;68.40
6556;DHT22;3311;48.32423000;14.29074500;2023-04-15T00:31:54;13.00;68.20
6556;DHT22;3311;48.32423000;14.29074500;2023-04-15T00:34:21;13.00;67.90
6556;DHT22;3311;48.32423000;14.29074500;2023-04-15T00:36:50;12.90;67.90
6556;DHT22;3311;48.32423000;14.29074500;2023-04-15T00:39:17;12.90;67.70
6556;DHT22;3311;48.32423000;14.29074500;2023-04-15T00:41:45;13.10;67.60
6556;DHT22;3311;48.32423000;14.29074500;2023-04-15T00:44:13;13.10;67.40
6556;DHT22;3311;48.32423000;14.29074500;2023-04-15T00:46:42;12.90;67.40
6556;DHT22;3311;48.32423000;14.29074500;2023-04-15T00:49:11;12.90;67.70
6556;DHT22;3311;48.32423000;14.29074500;2023-04-15T00:51:39;13.10;67.40
6556;DHT22;3311;48.32423000;14.29074500;2023-04-15T00:54:07;13.10;67.50
6556;DHT22;3311;48.32423000;14.29074500;2023-04-15T00:56:36;13.10;67.40
6556;DHT22;3311;48.32423000;14.29074500;2023-04-15T00:59:04;13.00;67.10
6556;DHT22;3311;48.32423000;14.29074500;2023-04-15T01:01:34;13.10;67.30
6556;DHT22;3311;48.32423000;14.29074500;2023-04-15T01:04:04;13.10;67.10
6556;DHT22;3311;48.32423000;14.29074500;2023-04-15T01:06:32;13.10;67.10
6556;DHT22;3311;48.32423000;14.29074500;2023-04-15T01:08:59;13.20;66.80
6556;DHT22;3311;48.32423000;14.29074500;2023-04-15T01:11:27;13.20;66.60
6556;DHT22;3311;48.32423000;14.29074500;2023-04-15T01:13:57;13.10;66.50
6556;DHT22;3311;48.32423000;14.29074500;2023-04-15T01:16:25;13.00;66.60
6556;DHT22;3311;48.32423000;14.29074500;2023-04-15T01:18:53;13.10;67.00
6556;DHT22;3311;48.32423000;14.29074500;2023-04-15T01:21:23;13.20;66.50
6556;DHT22;3311;48.32423000;14.29074500;2023-04-15T01:23:52;13.20;66.60
6556;DHT22;3311;48.32423000;14.29074500;2023-04-15T01:26:23;13.30;66.30
6556;DHT22;3311;48.32423000;14.29074500;2023-04-15T01:28:50;13.30;66.30
6556;DHT22;3311;48.32423000;14.29074500;2023-04-15T01:31:17;13.30;65.90
6556;DHT22;3311;48.32423000;14.29074500;2023-04-15T01:33:45;13.30;66.10
6556;DHT22;3311;48.32423000;14.29074500;2023-04-15T01:36:13;13.20;65.80
6556;DHT22;3311;48.32423000;14.29074500;2023-04-15T01:38:41;13.10;66.30
6556;DHT22;3311;48.32423000;14.29074500;2023-04-15T01:41:08;13.10;66.50
6556;DHT22;3311;48.32423000;14.29074500;2023-04-15T01:43:37;13.10;66.30
6556;DHT22;3311;48.32423000;14.29074500;2023-04-15T01:46:06;13.10;66.60
6556;DHT22;3311;48.32423000;14.29074500;2023-04-15T01:48:33;13.10;66.60
6556;DHT22;3311;48.32423000;14.29074500;2023-04-15T01:51:00;13.10;66.30
6556;DHT22;3311;48.32423000;14.29074500;2023-04-15T01:53:28;13.00;66.00
6556;DHT22;3311;48.32423000;14.29074500;2023-04-15T01:55:55;13.00;66.40
6556;DHT22;3311;48.32423000;14.29074500;2023-04-15T01:58:22;12.80;66.90
6556;DHT22;3311;48.32423000;14.29074500;2023-04-15T02:00:51;12.90;66.80
6556;DHT22;3311;48.32423000;14.29074500;2023-04-15T02:03:18;12.90;66.40
6556;DHT22;3311;48.32423000;14.29074500;2023-04-15T02:05:45;12.90;66.80
6556;DHT22;3311;48.32423000;14.29074500;2023-04-15T02:08:14;12.90;66.70
6556;DHT22;3311;48.32423000;14.29074500;2023-04-15T02:10:41;12.90;66.10
6556;DHT22;3311;48.32423000;14.29074500;2023-04-15T02:13:08;12.80;66.70
6556;DHT22;3311;48.32423000;14.29074500;2023-04-15T02:15:36;12.70;66.50
6556;DHT22;3311;48.32423000;14.29074500;2023-04-15T02:18:05;12.60;66.40
6556;DHT22;3311;48.32423000;14.29074500;2023-04-15T02:20:32;12.60;67.00
6556;DHT22;3311;48.32423000;14.29074500;2023-04-15T02:23:01;12.60;66.50
6556;DHT22;3311;48.32423000;14.29074500;2023-04-15T02:25:32;12.70;66.70
6556;DHT22;3311;48.32423000;14.29074500;2023-04-15T02:27:59;12.70;66.90
6556;DHT22;3311;48.32423000;14.29074500;2023-04-15T02:30:26;12.70;65.90
6556;DHT22;3311;48.32423000;14.29074500;2023-04-15T02:32:53;12.80;66.20
6556;DHT22;3311;48.32423000;14.29074500;2023-04-15T02:35:22;12.80;65.60
6556;DHT22;3311;48.32423000;14.29074500;2023-04-15T02:37:51;12.70;65.70
6556;DHT22;3311;48.32423000;14.29074500;2023-04-15T02:40:18;12.80;65.80
6556;DHT22;3311;48.32423000;14.29074500;2023-04-15T02:42:45;12.70;65.40
6556;DHT22;3311;48.32423000;14.29074500;2023-04-15T02:45:13;12.70;65.80
6556;DHT22;3311;48.32423000;14.29074500;2023-04-15T02:47:41;12.80;65.50
6556;DHT22;3311;48.32423000;14.29074500;2023-04-15T02:50:11;12.50;65.40
6556;DHT22;3311;48.32423000;14.29074500;2023-04-15T02:52:42;12.40;66.10
6556;DHT22;3311;48.32423000;14.29074500;2023-04-15T02:55:10;12.50;66.30
6556;DHT22;3311;48.32423000;14.29074500;2023-04-15T02:57:38;12.70;65.80
6556;DHT22;3311;48.32423000;14.29074500;2023-04-15T03:00:07;12.80;65.70
6556;DHT22;3311;48.32423000;14.29074500;2023-04-15T03:02:37;12.80;65.20
6556;DHT22;3311;48.32423000;14.29074500;2023-04-15T03:05:10;12.80;65.40
6556;DHT22;3311;48.32423000;14.29074500;2023-04-15T03:07:38;12.70;65.10
6556;DHT22;3311;48.32423000;14.29074500;2023-04-15T03:10:09;12.60;65.50
6556;DHT22;3311;48.32423000;14.29074500;2023-04-15T03:12:37;12.70;65.10
6556;DHT22;3311;48.32423000;14.29074500;2023-04-15T03:15:07;12.80;65.30
6556;DHT22;3311;48.32423000;14.29074500;2023-04-15T03:17:34;12.80;65.10
6556;DHT22;3311;48.32423000;14.29074500;2023-04-15T03:20:02;12.70;64.60
6556;DHT22;3311;48.32423000;14.29074500;2023-04-15T03:22:30;12.60;64.80
6556;DHT22;3311;48.32423000;14.29074500;2023-04-15T03:24:57;12.70;65.40
6556;DHT22;3311;48.32423000;14.29074500;2023-04-15T03:27:26;12.60;65.30
6556;DHT22;3311;48.32423000;14.29074500;2023-04-15T03:29:53;12.40;64.90
6556;DHT22;3311;48.32423000;14.29074500;2023-04-15T03:32:21;12.40;65.80
6556;DHT22;3311;48.32423000;14.29074500;2023-04-15T03:34:49;12.30;65.30
6556;DHT22;3311;48.32423000;14.29074500;2023-04-15T03:37:16;12.20;65.80
6556;DHT22;3311;48.32423000;14.29074500;2023-04-15T03:39:43;12.40;65.50
6556;DHT22;3311;48.32423000;14.29074500;2023-04-15T03:42:11;12.50;65.20
6556;DHT22;3311;48.32423000;14.29074500;2023-04-15T03:44:40;12.20;65.00
6556;DHT22;3311;48.32423000;14.29074500;2023-04-15T03:47:07;12.00;65.40
6556;DHT22;3311;48.32423000;14.29074500;2023-04-15T03:49:35;12.00;65.80
6556;DHT22;3311;48.32423000;14.29074500;2023-04-15T03:52:02;12.00;66.00
6556;DHT22;3311;48.32423000;14.29074500;2023-04-15T03:54:29;12.00;65.90
6556;DHT22;3311;48.32423000;14.29074500;2023-04-15T03:56:57;12.00;65.60
6556;DHT22;3311;48.32423000;14.29074500;2023-04-15T03:59:24;12.10;65.80
6556;DHT22;3311;48.32423000;14.29074500;2023-04-15T04:01:53;12.10;65.60
6556;DHT22;3311;48.32423000;14.29074500;2023-04-15T04:04:21;12.00;65.70
6556;DHT22;3311;48.32423000;14.29074500;2023-04-15T04:06:48;12.10;65.70
6556;DHT22;3311;48.32423000;14.29074500;2023-04-15T04:09:15;12.10;65.60
6556;DHT22;3311;48.32423000;14.29074500;2023-04-15T04:11:43;12.00;66.20
6556;DHT22;3311;48.32423000;14.29074500;2023-04-15T04:14:11;11.90;65.90
6556;DHT22;3311;48.32423000;14.29074500;2023-04-15T04:16:38;11.90;66.20
6556;DHT22;3311;48.32423000;14.29074500;2023-04-15T04:19:07;11.90;66.20
6556;DHT22;3311;48.32423000;14.29074500;2023-04-15T04:21:34;11.90;66.20
6556;DHT22;3311;48.32423000;14.29074500;2023-04-15T04:24:02;11.90;66.60
6556;DHT22;3311;48.32423000;14.29074500;2023-04-15T04:26:29;12.00;66.10
6556;DHT22;3311;48.32423000;14.29074500;2023-04-15T04:28:56;12.10;66.00
6556;DHT22;3311;48.32423000;14.29074500;2023-04-15T04:31:24;12.10;65.60
6556;DHT22;3311;48.32423000;14.29074500;2023-04-15T04:33:52;12.20;65.40
6556;DHT22;3311;48.32423000;14.29074500;2023-04-15T04:36:20;12.20;65.50
6556;DHT22;3311;48.32423000;14.29074500;2023-04-15T04:38:48;12.10;65.50
6556;DHT22;3311;48.32423000;14.29074500;2023-04-15T04:41:15;12.00;65.80
6556;DHT22;3311;48.32423000;14.29074500;2023-04-15T04:43:42;12.20;65.60
6556;DHT22;3311;48.32423000;14.29074500;2023-04-15T04:46:10;12.20;65.50
6556;DHT22;3311;48.32423000;14.29074500;2023-04-15T04:48:37;12.20;65.60
6556;DHT22;3311;48.32423000;14.29074500;2023-04-15T04:51:05;12.20;65.40
6556;DHT22;3311;48.32423000;14.29074500;2023-04-15T04:53:34;12.20;65.50
6556;DHT22;3311;48.32423000;14.29074500;2023-04-15T04:56:02;12.30;65.80
6556;DHT22;3311;48.32423000;14.29074500;2023-04-15T04:58:30;12.30;66.00
6556;DHT22;3311;48.32423000;14.29074500;2023-04-15T05:00:57;12.40;65.10
6556;DHT22;3311;48.32423000;14.29074500;2023-04-15T05:03:25;12.30;65.30
6556;DHT22;3311;48.32423000;14.29074500;2023-04-15T05:05:52;12.30;65.30
6556;DHT22;3311;48.32423000;14.29074500;2023-04-15T05:08:20;12.40;65.20
6556;DHT22;3311;48.32423000;14.29074500;2023-04-15T05:10:48;12.40;64.90
6556;DHT22;3311;48.32423000;14.29074500;2023-04-15T05:13:16;12.20;65.50
6556;DHT22;3311;48.32423000;14.29074500;2023-04-15T05:15:43;12.30;65.30
6556;DHT22;3311;48.32423000;14.29074500;2023-04-15T05:18:11;12.30;65.30
6556;DHT22;3311;48.32423000;14.29074500;2023-04-15T05:20:38;12.40;65.40
6556;DHT22;3311;48.32423000;14.29074500;2023-04-15T05:23:05;12.50;65.00
6556;DHT22;3311;48.32423000;14.29074500;2023-04-15T05:25:33;12.50;64.90
6556;DHT22;3311;48.32423000;14.29074500;2023-04-15T05:28:02;12.50;64.70
6556;DHT22;3311;48.32423000;14.29074500;2023-04-15T05:30:29;12.50;64.70
6556;DHT22;3311;48.32423000;14.29074500;2023-04-15T05:32:57;12.50;65.00
6556;DHT22;3311;48.32423000;14.29074500;2023-04-15T05:35:24;12.40;64.80
6556;DHT22;3311;48.32423000;14.29074500;2023-04-15T05:37:52;12.50;65.00
6556;DHT22;3311;48.32423000;14.29074500;2023-04-15T05:40:19;12.50;65.10
6556;DHT22;3311;48.32423000;14.29074500;2023-04-15T05:42:47;12.60;65.00
6556;DHT22;3311;48.32423000;14.29074500;2023-04-15T05:45:16;12.60;64.90
6556;DHT22;3311;48.32423000;14.29074500;2023-04-15T05:47:43;12.50;64.70
6556;DHT22;3311;48.32423000;14.29074500;2023-04-15T05:50:11;12.50;64.80
6556;DHT22;3311;48.32423000;14.29074500;2023-04-15T05:52:39;12.30;65.30
6556;DHT22;3311;48.32423000;14.29074500;2023-04-15T05:55:07;12.20;65.50
6556;DHT22;3311;48.32423000;14.29074500;2023-04-15T05:57:34;12.10;65.90
6556;DHT22;3311;48.32423000;14.29074500;2023-04-15T06:00:04;12.20;66.10
6556;DHT22;3311;48.32423000;14.29074500;2023-04-15T06:02:33;12.30;65.90
6556;DHT22;3311;48.32423000;14.29074500;2023-04-15T06:05:01;12.40;65.70
6556;DHT22;3311;48.32423000;14.29074500;2023-04-15T06:07:28;12.50;65.60
6556;DHT22;3311;48.32423000;14.29074500;2023-04-15T06:09:56;12.50;65.30
6556;DHT22;3311;48.32423000;14.29074500;2023-04-15T06:12:23;12.40;65.30
6556;DHT22;3311;48.32423000;14.29074500;2023-04-15T06:14:51;12.40;65.50
6556;DHT22;3311;48.32423000;14.29074500;2023-04-15T06:17:18;12.40;65.60
6556;DHT22;3311;48.32423000;14.29074500;2023-04-15T06:19:47;12.30;65.40
6556;DHT22;3311;48.32423000;14.29074500;2023-04-15T06:22:16;12.30;66.00
6556;DHT22;3311;48.32423000;14.29074500;2023-04-15T06:24:44;12.40;66.00
6556;DHT22;3311;48.32423000;14.29074500;2023-04-15T06:27:11;12.50;65.50
6556;DHT22;3311;48.32423000;14.29074500;2023-04-15T06:29:38;12.50;65.50
6556;DHT22;3311;48.32423000;14.29074500;2023-04-15T06:32:06;12.50;65.60
6556;DHT22;3311;48.32423000;14.29074500;2023-04-15T06:34:34;12.50;65.50
6556;DHT22;3311;48.32423000;14.29074500;2023-04-15T06:37:03;12.50;65.40
6556;DHT22;3311;48.32423000;14.29074500;2023-04-15T06:39:30;12.50;65.30
6556;DHT22;3311;48.32423000;14.29074500;2023-04-15T06:41:58;12.50;65.30
6556;DHT22;3311;48.32423000;14.29074500;2023-04-15T06:44:26;12.60;65.10
6556;DHT22;3311;48.32423000;14.29074500;2023-04-15T06:46:53;12.60;65.00
6556;DHT22;3311;48.32423000;14.29074500;2023-04-15T06:49:21;12.70;64.90
6556;DHT22;3311;48.32423000;14.29074500;2023-04-15T06:51:48;12.70;64.90
6556;DHT22;3311;48.32423000;14.29074500;2023-04-15T06:54:17;12.80;64.70
6556;DHT22;3311;48.32423000;14.29074500;2023-04-15T06:56:45;12.80;64.70
6556;DHT22;3311;48.32423000;14.29074500;2023-04-15T06:59:12;12.80;64.80
6556;DHT22;3311;48.32423000;14.29074500;2023-04-15T07:01:40;12.80;64.70
6556;DHT22;3311;48.32423000;14.29074500;2023-04-15T07:04:07;12.90;64.80
6556;DHT22;3311;48.32423000;14.29074500;2023-04-15T07:06:34;12.90;64.40
6556;DHT22;3311;48.32423000;14.29074500;2023-04-15T07:09:01;12.90;64.30
6556;DHT22;3311;48.32423000;14.29074500;2023-04-15T07:11:31;12.90;64.30
6556;DHT22;3311;48.32423000;14.29074500;2023-04-15T07:13:58;13.00;64.20
6556;DHT22;3311;48.32423000;14.29074500;2023-04-15T07:16:25;13.00;64.20
6556;DHT22;3311;48.32423000;14.29074500;2023-04-15T07:18:53;12.90;64.10
6556;DHT22;3311;48.32423000;14.29074500;2023-04-15T07:21:20;12.70;64.40
6556;DHT22;3311;48.32423000;14.29074500;2023-04-15T07:23:48;12.60;64.80
6556;DHT22;3311;48.32423000;14.29074500;2023-04-15T07:26:15;12.50;65.50
6556;DHT22;3311;48.32423000;14.29074500;2023-04-15T07:28:44;12.60;65.40
6556;DHT22;3311;48.32423000;14.29074500;2023-04-15T07:31:12;12.50;66.00
6556;DHT22;3311;48.32423000;14.29074500;2023-04-15T07:33:39;12.60;66.20
6556;DHT22;3311;48.32423000;14.29074500;2023-04-15T07:36:06;12.40;65.90
6556;DHT22;3311;48.32423000;14.29074500;2023-04-15T07:38:34;12.60;66.10
6556;DHT22;3311;48.32423000;14.29074500;2023-04-15T07:41:01;12.60;65.50
6556;DHT22;3311;48.32423000;14.29074500;2023-04-15T07:43:28;12.60;66.10
6556;DHT22;3311;48.32423000;14.29074500;2023-04-15T07:45:57;12.50;65.60
6556;DHT22;3311;48.32423000;14.29074500;2023-04-15T07:48:24;12.60;65.40
6556;DHT22;3311;48.32423000;14.29074500;2023-04-15T07:50:52;12.50;65.10
6556;DHT22;3311;48.32423000;14.29074500;2023-04-15T07:53:19;12.40;65.50
6556;DHT22;3311;48.32423000;14.29074500;2023-04-15T07:55:47;12.40;65.90
6556;DHT22;3311;48.32423000;14.29074500;2023-04-15T07:58:14;12.50;65.80
6556;DHT22;3311;48.32423000;14.29074500;2023-04-15T08:00:42;12.40;66.00
6556;DHT22;3311;48.32423000;14.29074500;2023-04-15T08:03:10;12.40;65.90
6556;DHT22;3311;48.32423000;14.29074500;2023-04-15T08:05:38;12.40;65.90
6556;DHT22;3311;48.32423000;14.29074500;2023-04-15T08:08:05;12.30;65.90
6556;DHT22;3311;48.32423000;14.29074500;2023-04-15T08:10:33;12.10;66.30
6556;DHT22;3311;48.32423000;14.29074500;2023-04-15T08:13:00;12.20;66.10
6556;DHT22;3311;48.32423000;14.29074500;2023-04-15T08:15:28;12.10;66.30
6556;DHT22;3311;48.32423000;14.29074500;2023-04-15T08:17:57;12.20;66.20
6556;DHT22;3311;48.32423000;14.29074500;2023-04-15T08:20:27;12.40;66.20
6556;DHT22;3311;48.32423000;14.29074500;2023-04-15T08:22:55;12.40;65.60
6556;DHT22;3311;48.32423000;14.29074500;2023-04-15T08:25:22;12.40;65.60
6556;DHT22;3311;48.32423000;14.29074500;2023-04-15T08:27:50;12.40;65.60
6556;DHT22;3311;48.32423000;14.29074500;2023-04-15T08:30:17;12.40;65.30
6556;DHT22;3311;48.32423000;14.29074500;2023-04-15T08:32:45;12.30;65.30
6556;DHT22;3311;48.32423000;14.29074500;2023-04-15T08:35:12;12.30;65.50
6556;DHT22;3311;48.32423000;14.29074500;2023-04-15T08:37:41;12.30;65.60
6556;DHT22;3311;48.32423000;14.29074500;2023-04-15T08:40:11;12.40;65.00
6556;DHT22;3311;48.32423000;14.29074500;2023-04-15T08:42:43;12.50;65.10
6556;DHT22;3311;48.32423000;14.29074500;2023-04-15T08:45:10;12.50;64.90
6556;DHT22;3311;48.32423000;14.29074500;2023-04-15T08:47:38;12.50;64.70
6556;DHT22;3311;48.32423000;14.29074500;2023-04-15T08:50:08;12.50;64.80
6556;DHT22;3311;48.32423000;14.29074500;2023-04-15T08:52:36;12.40;64.90
6556;DHT22;3311;48.32423000;14.29074500;2023-04-15T08:55:07;12.40;65.20
6556;DHT22;3311;48.32423000;14.29074500;2023-04-15T08:57:36;12.50;65.00
6556;DHT22;3311;48.32423000;14.29074500;2023-04-15T09:00:06;12.40;65.20
6556;DHT22;3311;48.32423000;14.29074500;2023-04-15T09:02:34;12.40;65.40
6556;DHT22;3311;48.32423000;14.29074500;2023-04-15T09:05:01;12.40;65.40
6556;DHT22;3311;48.32423000;14.29074500;2023-04-15T09:07:33;12.40;65.20
6556;DHT22;3311;48.32423000;14.29074500;2023-04-15T09:10:01;12.40;65.00
6556;DHT22;3311;48.32423000;14.29074500;2023-04-15T09:12:32;12.30;65.70
6556;DHT22;3311;48.32423000;14.29074500;2023-04-15T09:15:00;12.20;65.70
6556;DHT22;3311;48.32423000;14.29074500;2023-04-15T09:17:28;12.40;65.50
6556;DHT22;3311;48.32423000;14.29074500;2023-04-15T09:20:08;12.30;65.30
6556;DHT22;3311;48.32423000;14.29074500;2023-04-15T09:22:35;12.20;65.20
6556;DHT22;3311;48.32423000;14.29074500;2023-04-15T09:25:06;12.40;65.30
6556;DHT22;3311;48.32423000;14.29074500;2023-04-15T09:27:53;12.40;65.10
6556;DHT22;3311;48.32423000;14.29074500;2023-04-15T09:30:21;12.50;65.30
6556;DHT22;3311;48.32423000;14.29074500;2023-04-15T09:32:49;12.60;65.00
6556;DHT22;3311;48.32423000;14.29074500;2023-04-15T09:35:18;12.50;65.30
6556;DHT22;3311;48.32423000;14.29074500;2023-04-15T09:37:46;12.50;64.80
6556;DHT22;3311;48.32423000;14.29074500;2023-04-15T09:40:13;12.40;65.00
6556;DHT22;3311;48.32423000;14.29074500;2023-04-15T09:42:57;12.50;65.20
6556;DHT22;3311;48.32423000;14.29074500;2023-04-15T09:45:24;12.60;64.60
6556;DHT22;3311;48.32423000;14.29074500;2023-04-15T09:47:52;12.70;64.50
6556;DHT22;3311;48.32423000;14.29074500;2023-04-15T09:50:19;12.60;64.30
6556;DHT22;3311;48.32423000;14.29074500;2023-04-15T09:52:47;12.70;64.60
6556;DHT22;3311;48.32423000;14.29074500;2023-04-15T09:55:16;12.80;64.00
6556;DHT22;3311;48.32423000;14.29074500;2023-04-15T09:57:45;12.70;64.20
6556;DHT22;3311;48.32423000;14.29074500;2023-04-15T10:00:15;12.70;65.60
6556;DHT22;3311;48.32423000;14.29074500;2023-04-15T10:02:43;12.50;66.20
6556;DHT22;3311;48.32423000;14.29074500;2023-04-15T10:05:12;12.40;67.80
6556;DHT22;3311;48.32423000;14.29074500;2023-04-15T10:07:41;12.40;68.40
6556;DHT22;3311;48.32423000;14.29074500;2023-04-15T10:10:10;12.40;69.40
6556;DHT22;3311;48.32423000;14.29074500;2023-04-15T10:12:40;12.20;70.50
6556;DHT22;3311;48.32423000;14.29074500;2023-04-15T10:15:13;12.40;71.30
6556;DHT22;3311;48.32423000;14.29074500;2023-04-15T10:17:43;12.40;70.70
6556;DHT22;3311;48.32423000;14.29074500;2023-04-15T10:20:12;12.30;70.80
6556;DHT22;3311;48.32423000;14.29074500;2023-04-15T10:22:39;12.30;71.50
6556;DHT22;3311;48.32423000;14.29074500;2023-04-15T10:25:09;12.30;72.50
6556;DHT22;3311;48.32423000;14.29074500;2023-04-15T10:27:39;12.40;73.40
6556;DHT22;3311;48.32423000;14.29074500;2023-04-15T10:30:08;12.50;73.50
6556;DHT22;3311;48.32423000;14.29074500;2023-04-15T10:32:37;12.50;73.60
6556;DHT22;3311;48.32423000;14.29074500;2023-04-15T10:35:07;12.40;73.80
6556;DHT22;3311;48.32423000;14.29074500;2023-04-15T10:37:37;12.50;73.90
6556;DHT22;3311;48.32423000;14.29074500;2023-04-15T10:40:27;12.40;74.10
6556;DHT22;3311;48.32423000;14.29074500;2023-04-15T10:42:57;12.40;74.20
6556;DHT22;3311;48.32423000;14.29074500;2023-04-15T10:45:26;12.30;73.90
6556;DHT22;3311;48.32423000;14.29074500;2023-04-15T10:47:57;12.30;75.20
6556;DHT22;3311;48.32423000;14.29074500;2023-04-15T10:50:27;12.20;75.50
6556;DHT22;3311;48.32423000;14.29074500;2023-04-15T10:52:55;12.30;75.30
6556;DHT22;3311;48.32423000;14.29074500;2023-04-15T10:55:24;12.40;75.90
6556;DHT22;3311;48.32423000;14.29074500;2023-04-15T10:57:53;12.50;76.10
6556;DHT22;3311;48.32423000;14.29074500;2023-04-15T11:00:24;12.50;75.40
6556;DHT22;3311;48.32423000;14.29074500;2023-04-15T11:02:54;12.60;75.30
6556;DHT22;3311;48.32423000;14.29074500;2023-04-15T11:05:22;12.50;75.60
6556;DHT22;3311;48.32423000;14.29074500;2023-04-15T11:08:11;12.60;75.80
6556;DHT22;3311;48.32423000;14.29074500;2023-04-15T11:10:54;12.60;75.80
6556;DHT22;3311;48.32423000;14.29074500;2023-04-15T11:13:26;12.60;75.50
6556;DHT22;3311;48.32423000;14.29074500;2023-04-15T11:15:59;12.60;76.20
6556;DHT22;3311;48.32423000;14.29074500;2023-04-15T11:18:29;12.60;76.30
6556;DHT22;3311;48.32423000;14.29074500;2023-04-15T11:20:59;12.60;77.00
6556;DHT22;3311;48.32423000;14.29074500;2023-04-15T11:23:32;12.60;76.90
6556;DHT22;3311;48.32423000;14.29074500;2023-04-15T11:26:00;12.50;75.70
6556;DHT22;3311;48.32423000;14.29074500;2023-04-15T11:28:31;12.40;76.40
6556;DHT22;3311;48.32423000;14.29074500;2023-04-15T11:31:07;12.50;76.70
6556;DHT22;3311;48.32423000;14.29074500;2023-04-15T11:33:36;12.30;76.20
6556;DHT22;3311;48.32423000;14.29074500;2023-04-15T11:36:04;12.40;77.00
6556;DHT22;3311;48.32423000;14.29074500;2023-04-15T11:38:33;12.40;76.10
6556;DHT22;3311;48.32423000;14.29074500;2023-04-15T11:41:00;12.40;76.20
6556;DHT22;3311;48.32423000;14.29074500;2023-04-15T11:43:31;12.50;77.10
6556;DHT22;3311;48.32423000;14.29074500;2023-04-15T11:46:01;12.50;76.80
6556;DHT22;3311;48.32423000;14.29074500;2023-04-15T11:48:31;12.50;76.70
6556;DHT22;3311;48.32423000;14.29074500;2023-04-15T11:51:00;12.50;75.90
6556;DHT22;3311;48.32423000;14.29074500;2023-04-15T11:53:38;12.40;76.80
6556;DHT22;3311;48.32423000;14.29074500;2023-04-15T11:56:07;12.50;77.10
6556;DHT22;3311;48.32423000;14.29074500;2023-04-15T11:58:36;12.50;76.60
6556;DHT22;3311;48.32423000;14.29074500;2023-04-15T12:01:05;12.50;76.30
6556;DHT22;3311;48.32423000;14.29074500;2023-04-15T12:03:36;12.50;76.10
6556;DHT22;3311;48.32423000;14.29074500;2023-04-15T12:06:19;12.40;76.20
6556;DHT22;3311;48.32423000;14.29074500;2023-04-15T12:09:09;12.40;76.80
6556;DHT22;3311;48.32423000;14.29074500;2023-04-15T12:11:56;12.50;77.30
6556;DHT22;3311;48.32423000;14.29074500;2023-04-15T12:14:25;12.40;77.30
6556;DHT22;3311;48.32423000;14.29074500;2023-04-15T12:16:54;12.30;77.80
6556;DHT22;3311;48.32423000;14.29074500;2023-04-15T12:19:26;12.40;77.50
6556;DHT22;3311;48.32423000;14.29074500;2023-04-15T12:21:59;12.40;77.10
6556;DHT22;3311;48.32423000;14.29074500;2023-04-15T12:24:30;12.40;76.80
6556;DHT22;3311;48.32423000;14.29074500;2023-04-15T12:27:01;12.40;78.00
6556;DHT22;3311;48.32423000;14.29074500;2023-04-15T12:29:30;12.40;77.90
6556;DHT22;3311;48.32423000;14.29074500;2023-04-15T12:32:04;12.50;78.30
6556;DHT22;3311;48.32423000;14.29074500;2023-04-15T12:34:33;12.60;78.40
6556;DHT22;3311;48.32423000;14.29074500;2023-04-15T12:37:02;12.60;78.00
6556;DHT22;3311;48.32423000;14.29074500;2023-04-15T12:39:34;12.70;77.90
6556;DHT22;3311;48.32423000;14.29074500;2023-04-15T12:42:02;12.70;77.60
6556;DHT22;3311;48.32423000;14.29074500;2023-04-15T12:44:30;12.70;78.00
6556;DHT22;3311;48.32423000;14.29074500;2023-04-15T12:46:58;12.70;78.00
6556;DHT22;3311;48.32423000;14.29074500;2023-04-15T12:49:26;12.80;78.50
6556;DHT22;3311;48.32423000;14.29074500;2023-04-15T12:51:55;12.70;79.00
6556;DHT22;3311;48.32423000;14.29074500;2023-04-15T12:54:24;12.70;78.40
6556;DHT22;3311;48.32423000;14.29074500;2023-04-15T12:56:53;12.70;78.70
6556;DHT22;3311;48.32423000;14.29074500;2023-04-15T12:59:20;12.70;78.20
6556;DHT22;3311;48.32423000;14.29074500;2023-04-15T13:01:49;12.70;78.60
6556;DHT22;3311;48.32423000;14.29074500;2023-04-15T13:04:17;12.70;78.00
6556;DHT22;3311;48.32423000;14.29074500;2023-04-15T13:06:45;12.70;78.30
6556;DHT22;3311;48.32423000;14.29074500;2023-04-15T13:09:12;12.70;78.30
6556;DHT22;3311;48.32423000;14.29074500;2023-04-15T13:11:40;12.80;78.20
6556;DHT22;3311;48.32423000;14.29074500;2023-04-15T13:14:09;12.80;78.30
6556;DHT22;3311;48.32423000;14.29074500;2023-04-15T13:16:37;12.80;78.50
6556;DHT22;3311;48.32423000;14.29074500;2023-04-15T13:19:05;12.80;78.10
6556;DHT22;3311;48.32423000;14.29074500;2023-04-15T13:21:32;12.80;78.10
6556;DHT22;3311;48.32423000;14.29074500;2023-04-15T13:24:00;12.90;78.00
6556;DHT22;3311;48.32423000;14.29074500;2023-04-15T13:26:27;12.90;78.00
6556;DHT22;3311;48.32423000;14.29074500;2023-04-15T13:28:56;12.90;78.00
6556;DHT22;3311;48.32423000;14.29074500;2023-04-15T13:31:24;13.00;78.10
6556;DHT22;3311;48.32423000;14.29074500;2023-04-15T13:33:51;13.00;78.60
6556;DHT22;3311;48.32423000;14.29074500;2023-04-15T13:36:19;13.00;78.00
6556;DHT22;3311;48.32423000;14.29074500;2023-04-15T13:38:46;13.00;77.60
6556;DHT22;3311;48.32423000;14.29074500;2023-04-15T13:41:13;13.00;77.80
6556;DHT22;3311;48.32423000;14.29074500;2023-04-15T13:43:41;13.00;77.90